sensor_id;sensor_type;location;lat;lon;timestamp;temperature;humidity
6357;DHT22;3211;53.452;-2.264;2022-09-13T00:00:03;12.50;99.90
6357;DHT22;3211;53.452;-2.264;2022-09-13T00:02:46;12.50;99.90
6357;DHT22;3211;53.452;-2.264;2022-09-13T00:05:29;12.40;99.90
6357;DHT22;3211;53.452;-2.264;2022-09-13T00:08:12;12.40;99.90
6357;DHT22;3211;53.452;-2.264;2022-09-13T00:10:53;12.30;99.90
6357;DHT22;3211;53.452;-2.264;2022-09-13T00:13:35;12.30;99.90
6357;DHT22;3211;53.452;-2.264;2022-09-13T00:16:19;12.30;99.90
6357;DHT22;3211;53.452;-2.264;2022-09-13T00:19:01;12.30;99.90
6357;DHT22;3211;53.452;-2.264;2022-09-13T00:21:45;12.30;99.90
6357;DHT22;3211;53.452;-2.264;2022-09-13T00:24:28;12.20;99.90
6357;DHT22;3211;53.452;-2.264;2022-09-13T00:27:10;12.20;99.90
6357;DHT22;3211;53.452;-2.264;2022-09-13T00:29:52;12.10;99.90
6357;DHT22;3211;53.452;-2.264;2022-09-13T00:32:34;12.20;99.90
6357;DHT22;3211;53.452;-2.264;2022-09-13T00:35:16;12.10;99.90
6357;DHT22;3211;53.452;-2.264;2022-09-13T00:38:00;12.10;99.90
6357;DHT22;3211;53.452;-2.264;2022-09-13T00:40:42;12.20;99.90
6357;DHT22;3211;53.452;-2.264;2022-09-13T00:43:41;12.30;99.90
6357;DHT22;3211;53.452;-2.264;2022-09-13T00:46:28;12.20;99.90
6357;DHT22;3211;53.452;-2.264;2022-09-13T00:49:17;12.30;99.90
6357;DHT22;3211;53.452;-2.264;2022-09-13T00:52:05;12.20;99.90
6357;DHT22;3211;53.452;-2.264;2022-09-13T00:54:54;12.20;99.90
6357;DHT22;3211;53.452;-2.264;2022-09-13T00:57:38;12.10;99.90
6357;DHT22;3211;53.452;-2.264;2022-09-13T01:00:21;12.00;99.90
6357;DHT22;3211;53.452;-2.264;2022-09-13T01:03:07;11.90;99.90
6357;DHT22;3211;53.452;-2.264;2022-09-13T01:05:53;11.90;99.90
6357;DHT22;3211;53.452;-2.264;2022-09-13T01:08:38;12.00;99.90
6357;DHT22;3211;53.452;-2.264;2022-09-13T01:11:26;12.00;99.90
6357;DHT22;3211;53.452;-2.264;2022-09-13T01:14:10;12.00;99.90
6357;DHT22;3211;53.452;-2.264;2022-09-13T01:16:53;12.00;99.90
6357;DHT22;3211;53.452;-2.264;2022-09-13T01:19:35;11.90;99.90
6357;DHT22;3211;53.452;-2.264;2022-09-13T01:22:52;11.90;99.90
6357;DHT22;3211;53.452;-2.264;2022-09-13T01:32:20;11.90;99.90
6357;DHT22;3211;53.452;-2.264;2022-09-13T01:35:12;11.80;99.90
6357;DHT22;3211;53.452;-2.264;2022-09-13T01:38:02;11.70;99.90
6357;DHT22;3211;53.452;-2.264;2022-09-13T01:40:57;11.80;99.90
6357;DHT22;3211;53.452;-2.264;2022-09-13T01:43:47;11.80;99.90
6357;DHT22;3211;53.452;-2.264;2022-09-13T01:46:38;11.80;99.90
6357;DHT22;3211;53.452;-2.264;2022-09-13T01:49:29;11.80;99.90
6357;DHT22;3211;53.452;-2.264;2022-09-13T01:52:20;11.80;99.90
6357;DHT22;3211;53.452;-2.264;2022-09-13T01:55:09;11.80;99.90
6357;DHT22;3211;53.452;-2.264;2022-09-13T01:58:01;11.70;99.90
6357;DHT22;3211;53.452;-2.264;2022-09-13T02:00:47;11.60;99.90
6357;DHT22;3211;53.452;-2.264;2022-09-13T02:03:35;11.60;99.90
6357;DHT22;3211;53.452;-2.264;2022-09-13T02:06:25;11.60;99.90
6357;DHT22;3211;53.452;-2.264;2022-09-13T02:09:10;11.60;99.90
6357;DHT22;3211;53.452;-2.264;2022-09-13T02:11:59;11.50;99.90
6357;DHT22;3211;53.452;-2.264;2022-09-13T02:14:44;11.60;99.90
6357;DHT22;3211;53.452;-2.264;2022-09-13T02:17:30;11.50;99.90
6357;DHT22;3211;53.452;-2.264;2022-09-13T02:20:17;11.40;99.90
6357;DHT22;3211;53.452;-2.264;2022-09-13T02:23:04;11.30;99.90
6357;DHT22;3211;53.452;-2.264;2022-09-13T02:25:48;11.30;99.90
6357;DHT22;3211;53.452;-2.264;2022-09-13T02:28:35;11.30;99.90
6357;DHT22;3211;53.452;-2.264;2022-09-13T02:31:23;11.40;99.90
6357;DHT22;3211;53.452;-2.264;2022-09-13T02:34:11;11.40;99.90
6357;DHT22;3211;53.452;-2.264;2022-09-13T02:36:54;11.30;99.90
6357;DHT22;3211;53.452;-2.264;2022-09-13T02:39:42;11.30;99.90
6357;DHT22;3211;53.452;-2.264;2022-09-13T02:42:29;11.30;99.90
6357;DHT22;3211;53.452;-2.264;2022-09-13T02:45:13;11.20;99.90
6357;DHT22;3211;53.452;-2.264;2022-09-13T02:47:58;11.20;99.90
6357;DHT22;3211;53.452;-2.264;2022-09-13T02:50:46;11.30;99.90
6357;DHT22;3211;53.452;-2.264;2022-09-13T02:53:36;11.20;99.90
6357;DHT22;3211;53.452;-2.264;2022-09-13T02:56:24;11.20;99.90
6357;DHT22;3211;53.452;-2.264;2022-09-13T02:59:13;11.20;99.90
6357;DHT22;3211;53.452;-2.264;2022-09-13T03:01:58;11.10;99.90
6357;DHT22;3211;53.452;-2.264;2022-09-13T03:04:42;11.10;99.90
6357;DHT22;3211;53.452;-2.264;2022-09-13T03:07:24;11.10;99.90
6357;DHT22;3211;53.452;-2.264;2022-09-13T03:10:09;11.10;99.90
6357;DHT22;3211;53.452;-2.264;2022-09-13T03:16:18;11.10;99.90
6357;DHT22;3211;53.452;-2.264;2022-09-13T03:19:22;11.10;99.90
6357;DHT22;3211;53.452;-2.264;2022-09-13T03:22:31;11.10;99.90
6357;DHT22;3211;53.452;-2.264;2022-09-13T03:25:24;11.10;99.90
6357;DHT22;3211;53.452;-2.264;2022-09-13T03:28:17;11.00;99.90
6357;DHT22;3211;53.452;-2.264;2022-09-13T03:31:05;11.00;99.90
6357;DHT22;3211;53.452;-2.264;2022-09-13T03:33:51;11.00;99.90
6357;DHT22;3211;53.452;-2.264;2022-09-13T03:36:38;10.90;99.90
6357;DHT22;3211;53.452;-2.264;2022-09-13T03:39:28;10.90;99.90
6357;DHT22;3211;53.452;-2.264;2022-09-13T03:42:19;10.90;99.90
6357;DHT22;3211;53.452;-2.264;2022-09-13T03:45:06;10.90;99.90
6357;DHT22;3211;53.452;-2.264;2022-09-13T03:47:51;10.90;99.90
6357;DHT22;3211;53.452;-2.264;2022-09-13T03:50:34;10.80;99.90
6357;DHT22;3211;53.452;-2.264;2022-09-13T03:53:20;10.90;99.90
6357;DHT22;3211;53.452;-2.264;2022-09-13T03:56:12;10.80;99.90
6357;DHT22;3211;53.452;-2.264;2022-09-13T03:58:54;10.80;99.90
6357;DHT22;3211;53.452;-2.264;2022-09-13T04:01:37;10.70;99.90
6357;DHT22;3211;53.452;-2.264;2022-09-13T04:04:19;10.70;99.90
6357;DHT22;3211;53.452;-2.264;2022-09-13T04:07:01;10.80;99.90
6357;DHT22;3211;53.452;-2.264;2022-09-13T04:09:43;10.80;99.90
6357;DHT22;3211;53.452;-2.264;2022-09-13T04:12:26;10.80;99.90
6357;DHT22;3211;53.452;-2.264;2022-09-13T04:15:11;10.80;99.90
6357;DHT22;3211;53.452;-2.264;2022-09-13T04:17:54;10.70;99.90
6357;DHT22;3211;53.452;-2.264;2022-09-13T04:20:36;10.70;99.90
6357;DHT22;3211;53.452;-2.264;2022-09-13T04:23:18;10.60;99.90
6357;DHT22;3211;53.452;-2.264;2022-09-13T04:26:01;10.60;99.90
6357;DHT22;3211;53.452;-2.264;2022-09-13T04:28:43;10.60;99.90
6357;DHT22;3211;53.452;-2.264;2022-09-13T04:31:25;10.70;99.90
6357;DHT22;3211;53.452;-2.264;2022-09-13T04:34:09;10.60;99.90
6357;DHT22;3211;53.452;-2.264;2022-09-13T04:36:51;10.70;99.90
6357;DHT22;3211;53.452;-2.264;2022-09-13T04:39:34;10.60;99.90
6357;DHT22;3211;53.452;-2.264;2022-09-13T04:42:16;10.60;99.90
6357;DHT22;3211;53.452;-2.264;2022-09-13T04:44:59;10.60;99.90
6357;DHT22;3211;53.452;-2.264;2022-09-13T04:47:41;10.70;99.90
6357;DHT22;3211;53.452;-2.264;2022-09-13T04:50:24;10.70;99.90
6357;DHT22;3211;53.452;-2.264;2022-09-13T04:53:06;10.60;99.90
6357;DHT22;3211;53.452;-2.264;2022-09-13T04:55:48;10.60;99.90
6357;DHT22;3211;53.452;-2.264;2022-09-13T04:58:30;10.60;99.90
6357;DHT22;3211;53.452;-2.264;2022-09-13T05:01:12;10.60;99.90
6357;DHT22;3211;53.452;-2.264;2022-09-13T05:03:54;10.60;99.90
6357;DHT22;3211;53.452;-2.264;2022-09-13T05:06:37;10.60;99.90
6357;DHT22;3211;53.452;-2.264;2022-09-13T05:09:19;10.50;99.90
6357;DHT22;3211;53.452;-2.264;2022-09-13T05:12:02;10.50;99.90
6357;DHT22;3211;53.452;-2.264;2022-09-13T05:14:44;10.50;99.90
6357;DHT22;3211;53.452;-2.264;2022-09-13T05:17:26;10.50;99.90
6357;DHT22;3211;53.452;-2.264;2022-09-13T05:20:10;10.40;99.90
6357;DHT22;3211;53.452;-2.264;2022-09-13T05:22:54;10.40;99.90
6357;DHT22;3211;53.452;-2.264;2022-09-13T05:25:36;10.40;99.90
6357;DHT22;3211;53.452;-2.264;2022-09-13T05:28:18;10.40;99.90
6357;DHT22;3211;53.452;-2.264;2022-09-13T05:31:02;10.40;99.90
6357;DHT22;3211;53.452;-2.264;2022-09-13T05:33:45;10.40;99.90
6357;DHT22;3211;53.452;-2.264;2022-09-13T05:36:28;10.40;99.90
6357;DHT22;3211;53.452;-2.264;2022-09-13T05:39:13;10.30;99.90
6357;DHT22;3211;53.452;-2.264;2022-09-13T05:41:57;10.40;99.90
6357;DHT22;3211;53.452;-2.264;2022-09-13T05:44:39;10.30;99.90
6357;DHT22;3211;53.452;-2.264;2022-09-13T05:47:21;10.40;99.90
6357;DHT22;3211;53.452;-2.264;2022-09-13T05:50:04;10.40;99.90
6357;DHT22;3211;53.452;-2.264;2022-09-13T05:52:51;10.30;99.90
6357;DHT22;3211;53.452;-2.264;2022-09-13T05:55:34;10.20;99.90
6357;DHT22;3211;53.452;-2.264;2022-09-13T05:58:16;10.20;99.90
6357;DHT22;3211;53.452;-2.264;2022-09-13T06:00:58;10.30;99.90
6357;DHT22;3211;53.452;-2.264;2022-09-13T06:03:40;10.30;99.90
6357;DHT22;3211;53.452;-2.264;2022-09-13T06:06:23;10.20;99.90
6357;DHT22;3211;53.452;-2.264;2022-09-13T06:09:05;10.30;99.90
6357;DHT22;3211;53.452;-2.264;2022-09-13T06:11:50;10.30;99.90
6357;DHT22;3211;53.452;-2.264;2022-09-13T06:14:31;10.30;99.90
6357;DHT22;3211;53.452;-2.264;2022-09-13T06:17:14;10.30;99.90
6357;DHT22;3211;53.452;-2.264;2022-09-13T06:19:56;10.30;99.90
6357;DHT22;3211;53.452;-2.264;2022-09-13T06:22:38;10.40;99.90
6357;DHT22;3211;53.452;-2.264;2022-09-13T06:25:20;10.40;99.90
6357;DHT22;3211;53.452;-2.264;2022-09-13T06:28:04;10.40;99.90
6357;DHT22;3211;53.452;-2.264;2022-09-13T06:30:45;10.50;99.90
6357;DHT22;3211;53.452;-2.264;2022-09-13T06:33:27;10.50;99.90
6357;DHT22;3211;53.452;-2.264;2022-09-13T06:36:11;10.60;99.90
6357;DHT22;3211;53.452;-2.264;2022-09-13T06:38:54;10.60;99.90
6357;DHT22;3211;53.452;-2.264;2022-09-13T06:41:37;10.60;99.90
6357;DHT22;3211;53.452;-2.264;2022-09-13T06:44:20;10.70;99.90
6357;DHT22;3211;53.452;-2.264;2022-09-13T06:47:03;10.70;99.90
6357;DHT22;3211;53.452;-2.264;2022-09-13T06:49:45;10.70;99.90
6357;DHT22;3211;53.452;-2.264;2022-09-13T06:52:27;10.80;99.90
6357;DHT22;3211;53.452;-2.264;2022-09-13T06:55:09;10.80;99.90
6357;DHT22;3211;53.452;-2.264;2022-09-13T06:57:51;10.80;99.90
6357;DHT22;3211;53.452;-2.264;2022-09-13T07:00:34;10.90;99.90
6357;DHT22;3211;53.452;-2.264;2022-09-13T07:03:16;10.90;99.90
6357;DHT22;3211;53.452;-2.264;2022-09-13T07:05:58;10.90;99.90
6357;DHT22;3211;53.452;-2.264;2022-09-13T07:08:41;10.90;99.90
6357;DHT22;3211;53.452;-2.264;2022-09-13T07:11:25;10.90;99.90
6357;DHT22;3211;53.452;-2.264;2022-09-13T07:14:08;11.00;99.90
6357;DHT22;3211;53.452;-2.264;2022-09-13T07:16:54;11.00;99.90
6357;DHT22;3211;53.452;-2.264;2022-09-13T07:19:36;11.10;99.90
6357;DHT22;3211;53.452;-2.264;2022-09-13T07:22:18;11.00;99.90
6357;DHT22;3211;53.452;-2.264;2022-09-13T07:25:00;11.10;99.90
6357;DHT22;3211;53.452;-2.264;2022-09-13T07:27:42;11.20;99.90
6357;DHT22;3211;53.452;-2.264;2022-09-13T07:30:24;11.30;99.90
6357;DHT22;3211;53.452;-2.264;2022-09-13T07:33:07;11.30;99.90
6357;DHT22;3211;53.452;-2.264;2022-09-13T07:35:54;11.40;99.90
6357;DHT22;3211;53.452;-2.264;2022-09-13T07:38:37;11.40;99.90
6357;DHT22;3211;53.452;-2.264;2022-09-13T07:41:20;11.50;99.90
6357;DHT22;3211;53.452;-2.264;2022-09-13T07:44:03;11.50;99.90
6357;DHT22;3211;53.452;-2.264;2022-09-13T07:46:46;11.60;99.90
6357;DHT22;3211;53.452;-2.264;2022-09-13T07:49:29;11.60;99.90
6357;DHT22;3211;53.452;-2.264;2022-09-13T07:52:11;11.70;99.90
6357;DHT22;3211;53.452;-2.264;2022-09-13T07:54:53;11.70;99.90
6357;DHT22;3211;53.452;-2.264;2022-09-13T07:57:36;11.70;99.90
6357;DHT22;3211;53.452;-2.264;2022-09-13T08:00:18;11.80;99.90
6357;DHT22;3211;53.452;-2.264;2022-09-13T08:03:00;11.90;99.90
6357;DHT22;3211;53.452;-2.264;2022-09-13T08:05:43;11.90;99.90
6357;DHT22;3211;53.452;-2.264;2022-09-13T08:08:25;12.00;99.90
6357;DHT22;3211;53.452;-2.264;2022-09-13T08:11:07;12.00;99.90
6357;DHT22;3211;53.452;-2.264;2022-09-13T08:13:50;12.00;99.90
6357;DHT22;3211;53.452;-2.264;2022-09-13T08:16:32;12.10;99.90
6357;DHT22;3211;53.452;-2.264;2022-09-13T08:19:16;12.20;99.90
6357;DHT22;3211;53.452;-2.264;2022-09-13T08:21:59;12.40;99.90
6357;DHT22;3211;53.452;-2.264;2022-09-13T08:24:41;12.40;99.90
6357;DHT22;3211;53.452;-2.264;2022-09-13T08:27:23;12.50;99.90
6357;DHT22;3211;53.452;-2.264;2022-09-13T08:30:06;12.60;99.90
6357;DHT22;3211;53.452;-2.264;2022-09-13T08:32:49;12.70;99.90
6357;DHT22;3211;53.452;-2.264;2022-09-13T08:35:32;12.80;99.90
6357;DHT22;3211;53.452;-2.264;2022-09-13T08:38:16;12.80;99.90
6357;DHT22;3211;53.452;-2.264;2022-09-13T08:41:00;12.80;99.90
6357;DHT22;3211;53.452;-2.264;2022-09-13T08:43:48;12.90;99.90
6357;DHT22;3211;53.452;-2.264;2022-09-13T08:46:33;13.10;99.90
6357;DHT22;3211;53.452;-2.264;2022-09-13T08:49:18;13.30;99.90
6357;DHT22;3211;53.452;-2.264;2022-09-13T08:52:11;13.30;99.90
6357;DHT22;3211;53.452;-2.264;2022-09-13T08:55:03;13.30;99.90
6357;DHT22;3211;53.452;-2.264;2022-09-13T08:57:52;13.30;99.90
6357;DHT22;3211;53.452;-2.264;2022-09-13T09:00:38;13.50;99.90
6357;DHT22;3211;53.452;-2.264;2022-09-13T09:03:27;13.50;99.90
6357;DHT22;3211;53.452;-2.264;2022-09-13T09:06:13;13.70;99.90
6357;DHT22;3211;53.452;-2.264;2022-09-13T09:09:00;14.00;99.90
6357;DHT22;3211;53.452;-2.264;2022-09-13T09:11:49;13.90;99.90
6357;DHT22;3211;53.452;-2.264;2022-09-13T09:14:34;13.90;99.90
6357;DHT22;3211;53.452;-2.264;2022-09-13T09:17:21;14.00;99.90
6357;DHT22;3211;53.452;-2.264;2022-09-13T09:20:15;14.00;99.90
6357;DHT22;3211;53.452;-2.264;2022-09-13T09:23:03;14.10;99.90
6357;DHT22;3211;53.452;-2.264;2022-09-13T09:25:47;14.20;99.90
6357;DHT22;3211;53.452;-2.264;2022-09-13T09:28:34;14.50;99.90
6357;DHT22;3211;53.452;-2.264;2022-09-13T09:31:19;14.50;99.90
6357;DHT22;3211;53.452;-2.264;2022-09-13T09:34:11;14.60;99.90
6357;DHT22;3211;53.452;-2.264;2022-09-13T09:36:58;14.50;99.90
6357;DHT22;3211;53.452;-2.264;2022-09-13T09:39:43;14.80;99.90
6357;DHT22;3211;53.452;-2.264;2022-09-13T09:42:27;14.90;99.90
6357;DHT22;3211;53.452;-2.264;2022-09-13T09:45:24;14.70;99.90
6357;DHT22;3211;53.452;-2.264;2022-09-13T09:48:13;14.80;99.90
6357;DHT22;3211;53.452;-2.264;2022-09-13T09:50:57;14.90;99.90
6357;DHT22;3211;53.452;-2.264;2022-09-13T09:53:43;15.00;99.90
6357;DHT22;3211;53.452;-2.264;2022-09-13T09:56:30;15.00;99.90
6357;DHT22;3211;53.452;-2.264;2022-09-13T09:59:25;15.10;99.90
6357;DHT22;3211;53.452;-2.264;2022-09-13T10:04:41;15.30;99.90
6357;DHT22;3211;53.452;-2.264;2022-09-13T10:07:29;15.50;99.90
6357;DHT22;3211;53.452;-2.264;2022-09-13T10:10:20;15.70;99.90
6357;DHT22;3211;53.452;-2.264;2022-09-13T10:13:06;15.80;99.90
6357;DHT22;3211;53.452;-2.264;2022-09-13T10:15:55;15.80;99.90
6357;DHT22;3211;53.452;-2.264;2022-09-13T10:18:37;15.90;99.90
6357;DHT22;3211;53.452;-2.264;2022-09-13T10:21:23;16.00;99.90
6357;DHT22;3211;53.452;-2.264;2022-09-13T10:24:16;16.00;99.90
6357;DHT22;3211;53.452;-2.264;2022-09-13T10:27:02;15.90;99.90
6357;DHT22;3211;53.452;-2.264;2022-09-13T10:29:46;15.90;99.90
6357;DHT22;3211;53.452;-2.264;2022-09-13T10:32:30;16.00;99.90
6357;DHT22;3211;53.452;-2.264;2022-09-13T10:35:15;15.90;99.90
6357;DHT22;3211;53.452;-2.264;2022-09-13T10:38:00;15.90;99.90
6357;DHT22;3211;53.452;-2.264;2022-09-13T10:40:47;16.00;99.90
6357;DHT22;3211;53.452;-2.264;2022-09-13T10:43:30;16.10;99.90
6357;DHT22;3211;53.452;-2.264;2022-09-13T10:46:14;16.40;99.90
6357;DHT22;3211;53.452;-2.264;2022-09-13T10:49:02;16.60;99.90
6357;DHT22;3211;53.452;-2.264;2022-09-13T10:51:44;16.70;99.90
6357;DHT22;3211;53.452;-2.264;2022-09-13T10:54:28;16.80;99.90
6357;DHT22;3211;53.452;-2.264;2022-09-13T10:57:30;17.00;99.90
6357;DHT22;3211;53.452;-2.264;2022-09-13T11:00:15;17.00;99.90
6357;DHT22;3211;53.452;-2.264;2022-09-13T11:03:17;17.30;99.90
6357;DHT22;3211;53.452;-2.264;2022-09-13T11:06:07;17.50;99.90
6357;DHT22;3211;53.452;-2.264;2022-09-13T11:08:55;17.70;99.90
6357;DHT22;3211;53.452;-2.264;2022-09-13T11:11:47;17.90;99.90
6357;DHT22;3211;53.452;-2.264;2022-09-13T11:14:42;17.90;99.90
6357;DHT22;3211;53.452;-2.264;2022-09-13T11:17:37;18.00;99.90
6357;DHT22;3211;53.452;-2.264;2022-09-13T11:20:33;17.90;99.90
6357;DHT22;3211;53.452;-2.264;2022-09-13T11:26:49;18.00;99.90
6357;DHT22;3211;53.452;-2.264;2022-09-13T11:32:51;18.00;99.90
6357;DHT22;3211;53.452;-2.264;2022-09-13T11:35:46;18.00;99.90
6357;DHT22;3211;53.452;-2.264;2022-09-13T11:38:40;17.90;99.90
6357;DHT22;3211;53.452;-2.264;2022-09-13T11:41:31;17.80;99.90
6357;DHT22;3211;53.452;-2.264;2022-09-13T11:44:35;17.90;99.90
6357;DHT22;3211;53.452;-2.264;2022-09-13T11:47:32;17.90;99.90
6357;DHT22;3211;53.452;-2.264;2022-09-13T11:50:27;18.20;99.90
6357;DHT22;3211;53.452;-2.264;2022-09-13T11:56:17;18.40;99.90
6357;DHT22;3211;53.452;-2.264;2022-09-13T11:59:09;18.60;99.90
6357;DHT22;3211;53.452;-2.264;2022-09-13T12:01:57;18.70;99.90
6357;DHT22;3211;53.452;-2.264;2022-09-13T12:04:47;18.80;99.90
6357;DHT22;3211;53.452;-2.264;2022-09-13T12:07:34;19.00;99.90
6357;DHT22;3211;53.452;-2.264;2022-09-13T12:10:22;19.00;99.90
6357;DHT22;3211;53.452;-2.264;2022-09-13T12:13:09;19.10;99.90
6357;DHT22;3211;53.452;-2.264;2022-09-13T12:15:58;19.30;99.90
6357;DHT22;3211;53.452;-2.264;2022-09-13T12:18:45;19.10;99.90
6357;DHT22;3211;53.452;-2.264;2022-09-13T12:21:31;19.20;99.90
6357;DHT22;3211;53.452;-2.264;2022-09-13T12:24:17;19.30;99.90
6357;DHT22;3211;53.452;-2.264;2022-09-13T12:27:03;19.60;99.90
6357;DHT22;3211;53.452;-2.264;2022-09-13T12:29:52;19.80;99.90
6357;DHT22;3211;53.452;-2.264;2022-09-13T12:32:37;19.70;99.90
6357;DHT22;3211;53.452;-2.264;2022-09-13T12:35:25;19.90;99.90
6357;DHT22;3211;53.452;-2.264;2022-09-13T12:38:21;20.30;99.90
6357;DHT22;3211;53.452;-2.264;2022-09-13T12:41:26;20.40;99.90
6357;DHT22;3211;53.452;-2.264;2022-09-13T12:44:45;20.30;99.90
6357;DHT22;3211;53.452;-2.264;2022-09-13T12:47:47;19.90;99.90
6357;DHT22;3211;53.452;-2.264;2022-09-13T12:50:57;20.20;99.90
6357;DHT22;3211;53.452;-2.264;2022-09-13T12:54:01;20.20;99.90
6357;DHT22;3211;53.452;-2.264;2022-09-13T12:56:57;20.30;99.90
6357;DHT22;3211;53.452;-2.264;2022-09-13T13:00:11;20.00;99.90
6357;DHT22;3211;53.452;-2.264;2022-09-13T13:03:03;20.20;99.90
6357;DHT22;3211;53.452;-2.264;2022-09-13T13:05:55;20.60;99.90
6357;DHT22;3211;53.452;-2.264;2022-09-13T13:08:51;20.60;99.90
6357;DHT22;3211;53.452;-2.264;2022-09-13T13:11:45;20.60;99.90
6357;DHT22;3211;53.452;-2.264;2022-09-13T13:14:49;20.40;99.90
6357;DHT22;3211;53.452;-2.264;2022-09-13T13:17:46;20.40;99.90
6357;DHT22;3211;53.452;-2.264;2022-09-13T13:20:45;20.60;99.90
6357;DHT22;3211;53.452;-2.264;2022-09-13T13:23:28;20.90;99.90
6357;DHT22;3211;53.452;-2.264;2022-09-13T13:26:43;20.90;99.90
6357;DHT22;3211;53.452;-2.264;2022-09-13T13:29:26;21.00;99.90
6357;DHT22;3211;53.452;-2.264;2022-09-13T13:32:11;21.10;99.90
6357;DHT22;3211;53.452;-2.264;2022-09-13T13:34:54;21.10;99.90
6357;DHT22;3211;53.452;-2.264;2022-09-13T13:37:36;20.90;99.90
6357;DHT22;3211;53.452;-2.264;2022-09-13T13:40:21;20.70;99.90
6357;DHT22;3211;53.452;-2.264;2022-09-13T13:43:27;20.60;99.90
6357;DHT22;3211;53.452;-2.264;2022-09-13T13:46:25;20.40;99.90
6357;DHT22;3211;53.452;-2.264;2022-09-13T13:49:42;20.40;99.90
6357;DHT22;3211;53.452;-2.264;2022-09-13T13:52:35;20.50;99.90
6357;DHT22;3211;53.452;-2.264;2022-09-13T13:55:38;20.70;99.90
6357;DHT22;3211;53.452;-2.264;2022-09-13T13:58:32;21.00;99.90
6357;DHT22;3211;53.452;-2.264;2022-09-13T14:01:23;21.70;99.90
6357;DHT22;3211;53.452;-2.264;2022-09-13T14:04:37;21.20;99.90
6357;DHT22;3211;53.452;-2.264;2022-09-13T14:07:47;21.30;99.90
6357;DHT22;3211;53.452;-2.264;2022-09-13T14:10:42;21.60;99.90
6357;DHT22;3211;53.452;-2.264;2022-09-13T14:13:40;21.20;99.90
6357;DHT22;3211;53.452;-2.264;2022-09-13T14:16:32;21.40;99.90
6357;DHT22;3211;53.452;-2.264;2022-09-13T14:19:21;21.70;99.90
6357;DHT22;3211;53.452;-2.264;2022-09-13T14:22:15;22.00;99.90
6357;DHT22;3211;53.452;-2.264;2022-09-13T14:25:14;21.90;99.90
6357;DHT22;3211;53.452;-2.264;2022-09-13T14:27:58;21.70;99.90
6357;DHT22;3211;53.452;-2.264;2022-09-13T14:30:44;21.40;99.90
6357;DHT22;3211;53.452;-2.264;2022-09-13T14:33:28;21.30;99.90
6357;DHT22;3211;53.452;-2.264;2022-09-13T14:36:17;21.50;99.90
6357;DHT22;3211;53.452;-2.264;2022-09-13T14:38:59;21.50;99.90
6357;DHT22;3211;53.452;-2.264;2022-09-13T14:41:41;21.60;99.90
6357;DHT22;3211;53.452;-2.264;2022-09-13T14:44:25;22.00;99.90
6357;DHT22;3211;53.452;-2.264;2022-09-13T14:47:16;21.90;99.90
6357;DHT22;3211;53.452;-2.264;2022-09-13T14:50:02;21.60;99.90
6357;DHT22;3211;53.452;-2.264;2022-09-13T14:52:48;21.20;99.90
6357;DHT22;3211;53.452;-2.264;2022-09-13T14:55:35;21.40;99.90
6357;DHT22;3211;53.452;-2.264;2022-09-13T14:58:21;22.60;99.90
6357;DHT22;3211;53.452;-2.264;2022-09-13T15:01:07;23.60;99.70
6357;DHT22;3211;53.452;-2.264;2022-09-13T15:03:55;23.80;98.20
6357;DHT22;3211;53.452;-2.264;2022-09-13T15:06:39;24.90;98.10
6357;DHT22;3211;53.452;-2.264;2022-09-13T15:09:26;26.40;95.50
6357;DHT22;3211;53.452;-2.264;2022-09-13T15:12:22;27.90;93.90
6357;DHT22;3211;53.452;-2.264;2022-09-13T15:15:33;29.30;92.30
6357;DHT22;3211;53.452;-2.264;2022-09-13T15:18:24;28.90;91.50
6357;DHT22;3211;53.452;-2.264;2022-09-13T15:21:15;27.20;92.80
6357;DHT22;3211;53.452;-2.264;2022-09-13T15:23:57;26.80;92.90
6357;DHT22;3211;53.452;-2.264;2022-09-13T15:26:39;25.60;94.40
6357;DHT22;3211;53.452;-2.264;2022-09-13T15:29:21;24.60;95.10
6357;DHT22;3211;53.452;-2.264;2022-09-13T15:32:04;25.70;94.40
6357;DHT22;3211;53.452;-2.264;2022-09-13T15:34:48;26.60;93.70
6357;DHT22;3211;53.452;-2.264;2022-09-13T15:37:34;26.80;94.10
6357;DHT22;3211;53.452;-2.264;2022-09-13T15:40:19;26.90;93.50
6357;DHT22;3211;53.452;-2.264;2022-09-13T15:43:01;26.20;93.30
6357;DHT22;3211;53.452;-2.264;2022-09-13T15:45:43;25.10;94.00
6357;DHT22;3211;53.452;-2.264;2022-09-13T15:48:28;25.20;94.60
6357;DHT22;3211;53.452;-2.264;2022-09-13T15:51:12;24.80;94.90
6357;DHT22;3211;53.452;-2.264;2022-09-13T15:53:56;24.90;94.60
6357;DHT22;3211;53.452;-2.264;2022-09-13T15:56:41;25.70;94.10
6357;DHT22;3211;53.452;-2.264;2022-09-13T15:59:23;26.10;93.80
6357;DHT22;3211;53.452;-2.264;2022-09-13T16:02:18;25.20;94.20
6357;DHT22;3211;53.452;-2.264;2022-09-13T16:05:01;23.60;96.10
6357;DHT22;3211;53.452;-2.264;2022-09-13T16:07:47;23.60;96.30
6357;DHT22;3211;53.452;-2.264;2022-09-13T16:10:33;23.70;95.80
6357;DHT22;3211;53.452;-2.264;2022-09-13T16:13:15;24.80;95.30
6357;DHT22;3211;53.452;-2.264;2022-09-13T16:15:57;25.20;94.30
6357;DHT22;3211;53.452;-2.264;2022-09-13T16:18:39;25.50;94.00
6357;DHT22;3211;53.452;-2.264;2022-09-13T16:21:21;24.80;94.50
6357;DHT22;3211;53.452;-2.264;2022-09-13T16:24:03;24.00;95.50
6357;DHT22;3211;53.452;-2.264;2022-09-13T16:26:47;23.30;98.30
6357;DHT22;3211;53.452;-2.264;2022-09-13T16:29:29;22.70;97.50
6357;DHT22;3211;53.452;-2.264;2022-09-13T16:32:11;22.30;97.60
6357;DHT22;3211;53.452;-2.264;2022-09-13T16:34:53;22.00;98.60
6357;DHT22;3211;53.452;-2.264;2022-09-13T16:37:35;21.80;99.10
6357;DHT22;3211;53.452;-2.264;2022-09-13T16:40:18;21.90;99.80
6357;DHT22;3211;53.452;-2.264;2022-09-13T16:43:02;21.80;99.90
6357;DHT22;3211;53.452;-2.264;2022-09-13T16:45:44;22.10;98.90
6357;DHT22;3211;53.452;-2.264;2022-09-13T16:48:26;22.50;98.50
6357;DHT22;3211;53.452;-2.264;2022-09-13T16:51:09;22.00;99.40
6357;DHT22;3211;53.452;-2.264;2022-09-13T16:53:52;21.90;99.60
6357;DHT22;3211;53.452;-2.264;2022-09-13T16:56:35;21.80;99.80
6357;DHT22;3211;53.452;-2.264;2022-09-13T16:59:18;21.80;99.90
6357;DHT22;3211;53.452;-2.264;2022-09-13T17:02:01;21.20;99.90
6357;DHT22;3211;53.452;-2.264;2022-09-13T17:04:43;21.00;99.90
6357;DHT22;3211;53.452;-2.264;2022-09-13T17:07:25;20.90;99.90
6357;DHT22;3211;53.452;-2.264;2022-09-13T17:10:08;20.90;99.90
6357;DHT22;3211;53.452;-2.264;2022-09-13T17:12:52;21.10;99.90
6357;DHT22;3211;53.452;-2.264;2022-09-13T17:15:38;21.20;99.90
6357;DHT22;3211;53.452;-2.264;2022-09-13T17:18:20;20.50;99.90
6357;DHT22;3211;53.452;-2.264;2022-09-13T17:21:02;20.40;99.90
6357;DHT22;3211;53.452;-2.264;2022-09-13T17:23:45;20.20;99.90
6357;DHT22;3211;53.452;-2.264;2022-09-13T17:26:27;20.40;99.90
6357;DHT22;3211;53.452;-2.264;2022-09-13T17:29:10;20.40;99.90
6357;DHT22;3211;53.452;-2.264;2022-09-13T17:31:54;20.30;99.90
6357;DHT22;3211;53.452;-2.264;2022-09-13T17:34:36;20.00;99.90
6357;DHT22;3211;53.452;-2.264;2022-09-13T17:37:18;19.90;99.90
6357;DHT22;3211;53.452;-2.264;2022-09-13T17:40:00;19.80;99.90
6357;DHT22;3211;53.452;-2.264;2022-09-13T17:42:43;19.80;99.90
6357;DHT22;3211;53.452;-2.264;2022-09-13T17:45:27;19.70;99.90
6357;DHT22;3211;53.452;-2.264;2022-09-13T17:48:11;19.60;99.90
6357;DHT22;3211;53.452;-2.264;2022-09-13T17:50:59;19.40;99.90
6357;DHT22;3211;53.452;-2.264;2022-09-13T17:53:42;19.30;99.90
6357;DHT22;3211;53.452;-2.264;2022-09-13T17:56:27;19.10;99.90
6357;DHT22;3211;53.452;-2.264;2022-09-13T17:59:12;18.90;99.90
6357;DHT22;3211;53.452;-2.264;2022-09-13T18:01:54;18.80;99.90
6357;DHT22;3211;53.452;-2.264;2022-09-13T18:04:40;18.70;99.90
6357;DHT22;3211;53.452;-2.264;2022-09-13T18:07:22;18.50;99.90
6357;DHT22;3211;53.452;-2.264;2022-09-13T18:10:05;18.50;99.90